createdAt,value
2023-03-24T07:20:22.714Z,73.11
2023-03-24T07:25:27.164Z,72.12
2023-03-24T07:30:40.634Z,71.19
2023-03-24T07:35:44.067Z,70.98
2023-03-24T07:40:46.362Z,71.44
2023-03-24T07:45:48.355Z,70.97
2023-03-24T07:50:52.593Z,71.62
2023-03-24T07:56:15.979Z,70.56
2023-03-24T08:01:27.087Z,69.29
2023-03-24T08:06:32.466Z,68.48
2023-03-24T08:11:34.660Z,69.11
2023-03-24T08:16:38.905Z,69.37
2023-03-24T08:21:41.067Z,69.85
2023-03-24T08:26:43.102Z,69.35
2023-03-24T08:31:44.745Z,69.82
2023-03-24T08:36:46.370Z,69.31
2023-03-24T08:41:50.192Z,69.72
2023-03-24T08:46:51.875Z,69.96
2023-03-24T08:51:53.513Z,70.30
2023-03-24T08:56:55.449Z,69.59
2023-03-24T09:01:57.179Z,69.90
2023-03-24T09:07:02.843Z,69.01
2023-03-24T09:12:04.821Z,68.01
2023-03-24T09:17:06.993Z,68.59
2023-03-24T09:22:08.676Z,67.12
2023-03-24T09:27:10.883Z,67.46
2023-03-24T09:32:12.556Z,67.13
2023-03-24T09:37:14.264Z,67.60
2023-03-24T09:42:24.103Z,68.12
2023-03-24T09:47:30.971Z,67.10
2023-03-24T09:52:39.981Z,62.15
2023-03-24T09:57:45.634Z,61.85
2023-03-24T10:02:49.702Z,62.80
2023-03-24T10:08:12.736Z,64.64
2023-03-24T10:13:29.852Z,63.35
2023-03-24T10:18:46.121Z,63.24
2023-03-24T10:24:18.825Z,63.85
2023-03-24T10:29:28.862Z,61.87
2023-03-24T10:34:33.836Z,61.08
2023-03-24T10:39:43.948Z,61.24
2023-03-24T10:44:48.391Z,59.27
2023-03-24T10:50:12.324Z,50.57
2023-03-24T10:55:19.525Z,52.23
2023-03-24T11:00:26.834Z,58.26
2023-03-24T11:05:33.344Z,59.07
2023-03-24T11:10:34.991Z,60.26
2023-03-24T11:15:37.456Z,61.70
2023-03-24T11:21:09.439Z,62.90
2023-03-24T11:26:19.089Z,63.66
2023-03-24T11:31:27.902Z,64.31
2023-03-24T11:36:36.025Z,62.63
2023-03-24T11:41:52.676Z,62.07
2023-03-24T11:47:10.214Z,62.75
2023-03-24T11:52:24.189Z,63.30
2023-03-24T11:57:48.829Z,63.00
2023-03-24T12:02:59.525Z,64.44
2023-03-24T12:08:26.462Z,63.97
2023-03-24T12:13:39.380Z,60.08
2023-03-24T12:18:57.006Z,59.68
2023-03-24T12:24:17.399Z,60.73
2023-03-24T12:30:14.407Z,63.10
2023-03-24T12:35:38.219Z,63.55
2023-03-24T12:40:53.300Z,65.02
2023-03-24T12:46:06.089Z,65.84
2023-03-24T12:51:29.198Z,67.24
2023-03-24T12:56:48.167Z,67.33
2023-03-24T13:02:22.303Z,68.83
2023-03-24T13:07:28.520Z,69.12
2023-03-24T13:12:40.823Z,69.89
2023-03-24T13:17:59.821Z,69.63
2023-03-24T13:23:42.588Z,69.45
2023-03-24T13:29:10.888Z,68.79
2023-03-24T13:34:31.754Z,68.56
2023-03-24T13:39:36.152Z,68.46
2023-03-24T13:44:41.283Z,69.19
2023-03-24T13:49:53.748Z,69.87
2023-03-24T13:55:00.057Z,70.23
2023-03-24T14:00:11.896Z,70.31
2023-03-24T14:05:22.806Z,96.62
2023-03-24T14:10:24.396Z,100.00
2023-03-24T14:15:55.839Z,100.00
2023-03-24T14:20:57.552Z,100.00
2023-03-24T14:25:59.411Z,100.00
2023-03-24T14:31:10.198Z,99.03
2023-03-24T14:36:20.822Z,94.73
2023-03-24T14:41:38.994Z,92.44
2023-03-24T14:46:48.075Z,94.03
2023-03-24T14:52:09.263Z,92.32
2023-03-24T14:57:20.349Z,92.83
2023-03-24T15:02:41.382Z,91.28
2023-03-24T15:07:44.428Z,90.66
2023-03-24T15:12:47.701Z,91.40
2023-03-24T15:17:51.581Z,91.98
2023-03-24T15:22:55.393Z,92.87
2023-03-24T15:27:57.902Z,93.85
2023-03-24T15:32:59.704Z,93.69
2023-03-24T15:38:01.872Z,89.97
2023-03-24T15:43:17.997Z,88.01
2023-03-24T15:48:24.700Z,85.74
2023-03-24T15:53:29.469Z,84.42
2023-03-24T15:58:34.511Z,84.56
2023-03-24T16:03:36.204Z,84.15
2023-03-24T16:08:41.153Z,84.97
2023-03-24T16:13:45.005Z,83.99
2023-03-24T16:18:48.763Z,83.81
2023-03-24T16:23:52.386Z,82.45
2023-03-24T16:28:56.987Z,82.97
2023-03-24T16:33:59.402Z,83.04
2023-03-24T16:39:05.196Z,83.59
2023-03-24T16:44:06.873Z,82.44
2023-03-24T16:49:16.513Z,82.56
2023-03-24T16:54:19.970Z,82.06
2023-03-24T16:59:21.596Z,83.04
2023-03-24T17:04:25.916Z,83.54
2023-03-24T17:09:28.647Z,83.80
2023-03-24T17:14:31.162Z,84.30
2023-03-24T17:19:33.129Z,84.07
2023-03-24T17:24:36.706Z,83.17
2023-03-24T17:29:38.383Z,84.28
2023-03-24T17:34:42.369Z,84.08
2023-03-24T17:39:44.284Z,84.42
2023-03-24T17:44:45.969Z,84.38
2023-03-24T17:49:47.640Z,84.21
2023-03-24T17:54:49.245Z,83.68
2023-03-24T17:59:52.889Z,83.57
2023-03-24T18:04:55.190Z,82.99
2023-03-24T18:09:56.809Z,81.69
2023-03-24T18:14:58.417Z,82.54
2023-03-24T18:20:10.221Z,81.69
2023-03-24T18:25:13.591Z,81.20
2023-03-24T18:30:16.947Z,81.98
2023-03-24T18:35:18.709Z,82.08
2023-03-24T18:40:20.332Z,82.48
2023-03-24T18:45:21.957Z,83.46
2023-03-24T18:50:23.552Z,83.81
2023-03-24T18:55:26.712Z,84.04
2023-03-24T19:00:28.660Z,85.11
2023-03-24T19:05:33.405Z,84.70
2023-03-24T19:10:36.833Z,84.56
2023-03-24T19:15:39.349Z,84.59
2023-03-24T19:20:42.090Z,84.39
2023-03-24T19:25:43.854Z,84.34
2023-03-24T19:30:45.599Z,84.91
2023-03-24T19:35:48.695Z,83.81
2023-03-24T19:40:52.775Z,82.83
2023-03-24T19:45:55.983Z,83.15
2023-03-24T19:50:57.664Z,83.33
2023-03-24T19:55:59.904Z,83.23
2023-03-24T20:01:01.606Z,84.25
2023-03-24T20:06:05.112Z,83.31
2023-03-24T20:11:09.386Z,82.71
2023-03-24T20:16:11.145Z,83.49
2023-03-24T20:21:20.023Z,83.80
2023-03-24T20:26:21.978Z,83.24
2023-03-24T20:31:24.881Z,83.57
2023-03-24T20:36:26.512Z,84.19
2023-03-24T20:41:28.219Z,82.95
2023-03-24T20:46:29.903Z,82.51
2023-03-24T20:51:31.529Z,82.54
2023-03-24T20:56:34.614Z,83.11
2023-03-24T21:01:36.781Z,83.64
2023-03-24T21:06:38.438Z,83.85
2023-03-24T21:11:40.071Z,83.37
2023-03-24T21:16:41.709Z,83.89
2023-03-24T21:21:44.694Z,84.12
2023-03-24T21:26:49.418Z,83.64
2023-03-24T21:31:51.539Z,83.75
2023-03-24T21:36:55.605Z,83.94
2023-03-24T21:41:57.450Z,83.20
2023-03-24T21:47:00.628Z,83.22
2023-03-24T21:52:04.440Z,82.50
2023-03-24T21:57:06.125Z,81.48
2023-03-24T22:02:14.483Z,80.86
2023-03-24T22:07:18.959Z,80.90
2023-03-24T22:12:20.806Z,80.99
2023-03-24T22:17:22.453Z,80.83
2023-03-24T22:22:24.207Z,81.25
2023-03-24T22:27:25.873Z,81.22
2023-03-24T22:32:27.888Z,81.11
2023-03-24T22:37:30.502Z,80.88
2023-03-24T22:42:32.137Z,80.47
2023-03-24T22:47:34.059Z,80.58
2023-03-24T22:52:35.760Z,80.61
2023-03-24T22:57:37.382Z,81.07
2023-03-24T23:02:39.148Z,80.10
2023-03-24T23:07:42.150Z,80.36
2023-03-24T23:12:44.066Z,79.69
2023-03-24T23:17:46.231Z,79.43
2023-03-24T23:22:48.093Z,80.00
2023-03-24T23:27:49.972Z,80.09
2023-03-24T23:32:51.838Z,79.34
2023-03-24T23:37:53.577Z,79.79
2023-03-24T23:42:55.173Z,79.46
2023-03-24T23:47:56.971Z,79.89
2023-03-24T23:52:59.290Z,80.30
2023-03-24T23:58:01.101Z,80.25
